Time;durP1;ratioP1;P1;durP2;ratioP2;P2;SDS_P1;SDS_P2;PMS_P1;PMS_P2;Temp;Humidity;BMP_temperature;BMP_pressure;BME280_temperature;BME280_humidity;BME280_pressure;Samples;Min_cycle;Max_cycle;Signal;HPM_P1;HPM_P2
2023/07/13 00:02:11;;;;;;;10.00;7.30;;;;;;;23.96;62.34;98632.10;223743;182;145300;-64
2023/07/13 02:05:28;;;;;;;7.80;5.90;;;;;;;22.82;72.17;98615.85;220870;192;666318;-64
2023/07/13 02:10:31;;;;;;;10.00;7.30;;;;;;;22.77;72.18;98598.75;223534;184;136500;-64
2023/07/13 02:15:38;;;;;;;9.30;7.50;;;;;;;22.77;72.30;98591.45;223846;181;143485;-64
2023/07/13 02:20:41;;;;;;;10.50;6.30;;;;;;;22.76;72.08;98585.60;223812;180;139688;-66
2023/07/13 02:25:45;;;;;;;9.00;6.00;;;;;;;22.68;72.59;98584.86;223763;181;137472;-66
2023/07/13 02:30:55;;;;;;;10.40;6.40;;;;;;;22.65;72.55;98581.80;223659;181;143495;-65
2023/07/13 02:36:05;;;;;;;9.70;6.10;;;;;;;22.67;72.39;98578.42;223939;181;138135;-65
2023/07/13 02:41:09;;;;;;;8.80;6.00;;;;;;;22.65;72.30;98589.54;223731;181;137278;-66
2023/07/13 02:46:15;;;;;;;9.00;5.90;;;;;;;22.61;72.25;98594.04;223788;180;145689;-66
2023/07/13 02:51:18;;;;;;;9.80;5.30;;;;;;;22.58;72.07;98596.16;223771;180;139337;-65
2023/07/13 02:56:26;;;;;;;9.80;5.50;;;;;;;22.55;71.93;98608.30;223797;181;137974;-66
2023/07/13 03:01:30;;;;;;;8.90;5.40;;;;;;;22.51;72.40;98616.94;223587;181;145785;-65
2023/07/13 03:06:33;;;;;;;8.10;5.70;;;;;;;22.52;72.54;98616.94;223703;182;138576;-67
2023/07/13 03:11:36;;;;;;;13.10;6.40;;;;;;;22.54;72.65;98610.40;223813;182;139680;-64
2023/07/13 03:16:59;;;;;;;10.50;5.30;;;;;;;22.52;72.68;98613.55;223714;182;146765;-63
2023/07/13 03:22:06;;;;;;;9.80;5.60;;;;;;;22.48;72.95;98622.98;223687;181;140467;-63
2023/07/13 03:27:10;;;;;;;8.30;5.80;;;;;;;22.44;73.24;98630.02;223777;181;137106;-63
2023/07/13 03:32:14;;;;;;;9.30;5.90;;;;;;;22.44;73.47;98626.21;223667;181;146109;-65
2023/07/13 03:37:18;;;;;;;9.20;6.00;;;;;;;22.45;73.45;98639.20;223610;182;139233;-63
2023/07/13 03:42:21;;;;;;;11.00;6.30;;;;;;;22.39;73.53;98643.61;223750;181;136414;-63
2023/07/13 03:47:24;;;;;;;8.10;5.80;;;;;;;22.38;73.67;98635.72;223716;182;145852;-64
2023/07/13 03:52:30;;;;;;;9.40;6.00;;;;;;;22.36;73.43;98634.64;223706;181;137275;-63
2023/07/13 03:57:34;;;;;;;9.60;6.40;;;;;;;22.40;73.61;98619.51;223735;181;137101;-66
2023/07/13 04:02:41;;;;;;;10.50;6.20;;;;;;;22.47;73.54;98610.66;223586;181;145845;-64
2023/07/13 04:07:44;;;;;;;8.00;6.30;;;;;;;22.55;73.54;98613.18;223632;182;138895;-62
2023/07/13 04:12:48;;;;;;;9.30;6.40;;;;;;;22.58;73.48;98620.73;223737;181;137009;-66
2023/07/13 04:17:51;;;;;;;10.70;5.70;;;;;;;22.60;73.34;98623.54;223725;181;145223;-65
2023/07/13 04:22:54;;;;;;;6.50;5.10;;;;;;;22.64;73.16;98628.90;223645;181;138404;-65
2023/07/13 04:28:06;;;;;;;10.70;5.40;;;;;;;22.72;73.36;98638.13;223761;181;136580;-64
2023/07/13 04:33:10;;;;;;;9.10;5.60;;;;;;;22.83;73.07;98648.68;223820;182;145408;-64
2023/07/13 04:38:15;;;;;;;12.50;6.00;;;;;;;22.91;72.72;98651.73;223702;182;138283;-64
2023/07/13 04:43:18;;;;;;;;;;;;;;;23.01;72.12;98662.23;223677;181;136837;-65
2023/07/13 04:48:22;;;;;;;8.00;5.00;;;;;;;23.03;71.72;98664.11;223682;181;145280;-64
2023/07/13 04:53:26;;;;;;;7.20;5.40;;;;;;;23.02;71.46;98663.70;223673;181;138734;-64
2023/07/13 04:58:30;;;;;;;9.80;5.40;;;;;;;23.07;71.49;98658.90;223661;181;138185;-63
2023/07/13 05:03:33;;;;;;;9.30;5.50;;;;;;;23.18;71.05;98639.90;223702;181;145799;-64
2023/07/13 05:08:37;;;;;;;7.90;6.00;;;;;;;23.26;71.00;98629.42;223690;181;138543;-63
2023/07/13 05:13:40;;;;;;;9.00;5.50;;;;;;;23.44;71.31;98620.20;223734;181;137361;-63
2023/07/13 05:18:43;;;;;;;7.40;5.40;;;;;;;23.59;71.03;98632.02;223753;182;145243;-63
2023/07/13 05:23:47;;;;;;;7.80;5.30;;;;;;;23.71;71.07;98640.98;223726;183;138243;-63
2023/07/13 05:28:50;;;;;;;8.50;5.60;;;;;;;23.85;70.94;98641.79;223654;182;137983;-63
2023/07/13 05:33:54;;;;;;;42.70;38.00;;;;;;;24.03;70.29;98630.00;223579;183;146256;-63
2023/07/13 05:38:57;;;;;;;9.70;5.60;;;;;;;24.21;69.52;98628.58;223739;182;138294;-63
2023/07/13 05:44:00;;;;;;;10.10;5.10;;;;;;;24.33;68.95;98624.77;223770;182;136627;-63
2023/07/13 05:49:04;;;;;;;63.60;51.70;;;;;;;24.41;68.00;98621.39;223718;181;145727;-66
2023/07/13 05:54:07;;;;;;;13.10;4.90;;;;;;;24.44;67.56;98616.13;223642;181;138935;-66
2023/07/13 05:59:10;;;;;;;31.70;28.30;;;;;;;24.42;67.19;98615.73;223716;182;137534;-65
2023/07/13 06:04:13;;;;;;;21.60;19.00;;;;;;;24.44;67.46;98610.73;223543;181;145071;-67
2023/07/13 06:09:16;;;;;;;33.90;6.00;;;;;;;24.54;67.26;98614.85;223605;182;139001;-65
2023/07/13 06:14:20;;;;;;;54.20;48.50;;;;;;;24.68;66.69;98617.98;223803;182;137485;-64
2023/07/13 06:19:23;;;;;;;28.70;20.80;;;;;;;24.75;66.64;98611.50;223779;182;145279;-63
2023/07/13 06:24:27;;;;;;;10.60;4.90;;;;;;;24.76;66.83;98612.64;223759;182;140387;-63
2023/07/13 06:29:40;;;;;;;9.10;4.40;;;;;;;24.81;67.16;98608.76;223741;182;137575;-66
2023/07/13 06:34:43;;;;;;;7.80;4.10;;;;;;;24.87;67.12;98608.09;223688;181;145273;-65
2023/07/13 06:39:46;;;;;;;13.60;4.50;;;;;;;24.96;66.92;98599.06;223790;182;138670;-66
2023/07/13 06:44:49;;;;;;;13.80;5.00;;;;;;;25.09;66.81;98607.63;223681;182;138107;-64
2023/07/13 06:49:53;;;;;;;33.40;6.60;;;;;;;25.19;65.94;98605.42;223660;181;145197;-64
2023/07/13 06:54:56;;;;;;;14.10;4.20;;;;;;;25.27;65.31;98607.02;223622;182;138224;-63
2023/07/13 06:59:59;;;;;;;13.00;4.70;;;;;;;25.31;65.11;98613.87;223659;181;137989;-66
2023/07/13 07:05:03;;;;;;;9.00;4.10;;;;;;;25.35;64.66;98621.06;223568;181;145184;-66
2023/07/13 07:10:06;;;;;;;157.10;120.80;;;;;;;25.38;64.81;98625.52;223708;181;138551;-65
2023/07/13 07:15:10;;;;;;;13.20;8.20;;;;;;;25.43;64.52;98630.13;223728;181;137105;-66
2023/07/13 07:20:13;;;;;;;13.00;7.00;;;;;;;25.46;63.81;98632.15;223604;181;145288;-66
2023/07/13 07:25:17;;;;;;;8.90;5.00;;;;;;;25.46;63.35;98625.57;223574;183;138414;-64
2023/07/13 07:30:20;;;;;;;125.90;108.40;;;;;;;25.46;62.85;98623.47;223822;182;137868;-65
2023/07/13 07:35:26;;;;;;;13.70;7.90;;;;;;;25.54;62.30;98620.51;223614;181;145377;-65
2023/07/13 07:40:37;;;;;;;7.40;4.00;;;;;;;25.59;61.03;98606.73;223640;181;139242;-65
2023/07/13 07:45:44;;;;;;;5.80;3.40;;;;;;;25.56;60.82;98600.09;223705;181;137357;-63
2023/07/13 07:50:47;;;;;;;9.20;3.20;;;;;;;25.56;60.37;98597.11;223715;181;145339;-65
2023/07/13 07:55:51;;;;;;;10.70;3.60;;;;;;;25.59;60.29;98591.52;223661;181;139143;-64
2023/07/13 08:01:07;;;;;;;180.80;154.10;;;;;;;25.63;60.18;98594.05;223611;181;137291;-66
2023/07/13 08:06:13;;;;;;;16.30;12.20;;;;;;;25.76;60.53;98594.88;223588;181;145454;-65
2023/07/13 08:11:38;;;;;;;9.30;6.10;;;;;;;25.84;60.15;98600.16;223683;181;138304;-64
2023/07/13 08:16:46;;;;;;;29.70;22.40;;;;;;;25.84;60.28;98598.19;223704;181;136912;-64
2023/07/13 08:21:49;;;;;;;11.30;5.60;;;;;;;25.93;60.59;98603.77;223744;181;145690;-65
2023/07/13 08:26:53;;;;;;;8.10;3.60;;;;;;;25.98;60.68;98606.75;223662;181;138295;-66
2023/07/13 08:31:57;;;;;;;7.10;3.60;;;;;;;26.02;59.49;98604.46;223624;181;137187;-67
2023/07/13 08:37:02;;;;;;;22.50;19.10;;;;;;;26.10;58.67;98605.04;223676;181;146078;-65
2023/07/13 08:42:27;;;;;;;10.80;6.80;;;;;;;26.25;58.60;98606.54;223643;181;139184;-64
2023/07/13 08:47:37;;;;;;;8.20;3.50;;;;;;;26.37;58.27;98603.84;223705;181;137174;-66
2023/07/13 08:52:44;;;;;;;9.20;7.60;;;;;;;26.38;57.04;98599.46;223663;181;145285;-68
2023/07/13 09:02:25;;;;;;;19.60;4.30;;;;;;;26.46;56.08;98584.09;219522;193;665598;-63
2023/07/13 09:07:46;;;;;;;8.00;3.80;;;;;;;26.49;54.13;98572.05;223220;185;137145;-66
2023/07/13 09:12:55;;;;;;;7.30;2.90;;;;;;;26.39;55.19;98567.77;223479;183;144538;-69
2023/07/13 09:18:29;;;;;;;10.40;3.50;;;;;;;26.32;55.58;98560.16;223484;185;139279;-66
2023/07/13 09:23:35;;;;;;;71.60;58.10;;;;;;;26.30;55.65;98560.17;223502;184;136902;-65
2023/07/13 09:28:42;;;;;;;58.40;52.00;;;;;;;26.34;55.41;98563.70;223506;184;143685;-67
2023/07/13 09:33:46;;;;;;;12.00;7.60;;;;;;;26.31;55.94;98559.98;223423;185;140673;-64
2023/07/13 09:39:02;;;;;;;9.30;4.10;;;;;;;26.27;56.30;98557.69;223571;183;137609;-65
2023/07/13 09:44:11;;;;;;;8.00;3.40;;;;;;;26.20;55.87;98564.05;223480;184;143943;-65
2023/07/13 09:49:15;;;;;;;9.60;3.60;;;;;;;26.14;56.22;98562.58;223584;184;139036;-64
2023/07/13 09:54:20;;;;;;;14.50;8.20;;;;;;;26.09;56.59;98562.98;223482;184;138281;-65
2023/07/13 09:59:39;;;;;;;107.60;87.70;;;;;;;26.07;56.11;98565.66;223516;183;145023;-64
2023/07/13 10:04:43;;;;;;;14.60;4.70;;;;;;;25.99;54.00;98575.84;223422;183;138751;-67
2023/07/13 10:09:46;;;;;;;487.10;47.70;;;;;;;25.97;53.92;98573.73;223630;183;136901;-68
2023/07/13 10:14:54;;;;;;;17.30;4.20;;;;;;;25.96;53.73;98572.27;223473;180;145311;-65
2023/07/13 10:20:14;;;;;;;14.30;4.90;;;;;;;25.93;53.94;98570.99;223548;183;138980;-67
2023/07/13 10:25:20;;;;;;;16.70;8.10;;;;;;;25.88;54.62;98583.81;223236;183;137847;-65
2023/07/13 10:30:29;;;;;;;8.50;3.50;;;;;;;25.78;55.95;98591.16;223324;183;145388;-65
2023/07/13 10:35:33;;;;;;;8.90;3.80;;;;;;;25.53;58.90;98590.85;223514;183;139189;-67
2023/07/13 10:41:09;;;;;;;9.60;3.80;;;;;;;25.29;60.81;98599.19;223433;183;137378;-66
2023/07/13 10:46:16;;;;;;;122.60;99.90;;;;;;;25.10;62.03;98607.52;223499;184;145107;-64
2023/07/13 10:51:21;;;;;;;255.60;228.00;;;;;;;24.96;64.18;98617.83;223449;184;138808;-64
2023/07/13 10:56:31;;;;;;;10.90;5.60;;;;;;;24.89;65.87;98624.52;223500;184;137829;-63
2023/07/13 11:01:46;;;;;;;8.90;4.50;;;;;;;24.91;64.81;98631.06;223493;184;145382;-65
2023/07/13 11:06:56;;;;;;;18.50;13.60;;;;;;;24.98;64.98;98640.13;223402;184;138505;-67
2023/07/13 11:12:02;;;;;;;11.70;7.20;;;;;;;24.97;64.95;98643.17;223464;184;136893;-71
2023/07/13 11:17:27;;;;;;;9.00;4.90;;;;;;;24.90;65.57;98647.65;223419;184;145395;-68
2023/07/13 11:22:47;;;;;;;9.70;4.60;;;;;;;24.76;66.28;98663.58;223419;184;138417;-66
2023/07/13 11:28:04;;;;;;;7.00;4.60;;;;;;;24.59;66.85;98661.61;223457;184;137272;-69
2023/07/13 11:33:13;;;;;;;8.50;5.20;;;;;;;24.52;67.15;98671.45;223406;183;145230;-66
2023/07/13 11:38:20;;;;;;;11.50;6.30;;;;;;;24.49;67.55;98675.60;223571;183;139347;-65
2023/07/13 11:43:24;;;;;;;6.50;3.40;;;;;;;24.32;68.41;98729.13;223650;183;136836;-64
2023/07/13 11:48:31;;;;;;;9.00;3.60;;;;;;;23.61;68.18;98778.45;223622;182;145300;-63
2023/07/13 11:53:49;;;;;;;91.80;73.20;;;;;;;23.07;69.57;98812.09;223652;183;138152;-64
2023/07/13 11:58:54;;;;;;;4.60;2.30;;;;;;;22.87;69.52;98824.27;223754;182;138708;-63
2023/07/13 12:04:28;;;;;;;4.00;2.20;;;;;;;22.60;68.62;98812.07;223634;182;146575;-63
2023/07/13 12:09:36;;;;;;;7.80;2.10;;;;;;;22.27;68.71;98816.76;223591;182;138161;-63
2023/07/13 12:14:40;;;;;;;138.20;118.00;;;;;;;21.95;68.57;98821.60;223640;182;136405;-63
2023/07/13 12:19:43;;;;;;;4.00;2.50;;;;;;;21.80;68.54;98825.54;223530;182;144950;-63
2023/07/13 12:24:48;;;;;;;5.00;2.30;;;;;;;21.63;69.33;98822.73;223717;183;138780;-63
2023/07/13 12:29:53;;;;;;;5.10;2.30;;;;;;;21.47;70.01;98833.83;223718;182;136369;-64
2023/07/13 12:35:22;;;;;;;4.90;1.90;;;;;;;21.35;70.35;98839.30;223703;182;146200;-63
2023/07/13 12:40:32;;;;;;;25.40;3.40;;;;;;;21.24;70.64;98840.48;223687;182;138608;-64
2023/07/13 12:45:57;;;;;;;9.30;2.60;;;;;;;21.16;70.67;98827.80;223719;182;137232;-63
2023/07/13 12:51:01;;;;;;;4.60;2.10;;;;;;;21.07;71.41;98822.74;223680;183;145931;-62
2023/07/13 12:56:09;;;;;;;10.00;2.50;;;;;;;20.99;71.52;98822.85;223609;182;140166;-66
2023/07/13 13:01:14;;;;;;;4.00;1.80;;;;;;;20.92;71.39;98818.57;223673;182;136858;-64
2023/07/13 13:06:18;;;;;;;2.50;1.50;;;;;;;20.89;71.47;98813.32;223797;182;145790;-63
2023/07/13 13:11:23;;;;;;;184.60;15.70;;;;;;;20.91;71.62;98816.51;223740;182;138487;-65
2023/07/13 13:16:26;;;;;;;17.80;11.10;;;;;;;20.94;71.91;98814.85;223623;183;137394;-65
2023/07/13 13:21:29;;;;;;;46.50;40.40;;;;;;;20.95;72.26;98822.91;223762;182;145370;-65
2023/07/13 13:26:33;;;;;;;3.90;2.30;;;;;;;21.01;72.34;98829.48;223546;182;138740;-64
2023/07/13 13:31:36;;;;;;;2.80;1.50;;;;;;;21.04;72.36;98824.13;223686;183;136643;-66
2023/07/13 13:36:40;;;;;;;2.30;1.40;;;;;;;21.03;72.51;98831.54;223660;182;145471;-63
2023/07/13 13:41:44;;;;;;;3.80;1.40;;;;;;;21.10;72.30;98836.86;223589;182;138896;-66
2023/07/13 13:46:51;;;;;;;3.90;1.80;;;;;;;21.21;72.19;98840.31;223767;182;136668;-62
2023/07/13 13:51:56;;;;;;;2.80;1.70;;;;;;;21.30;71.87;98842.80;223628;183;145144;-65
2023/07/13 13:56:59;;;;;;;4.90;1.90;;;;;;;21.37;71.99;98844.31;223698;183;138367;-64
2023/07/13 14:02:24;;;;;;;3.30;1.60;;;;;;;21.41;72.03;98841.35;223662;182;152951;-64
2023/07/13 14:07:30;;;;;;;2.00;1.40;;;;;;;21.39;71.43;98849.32;223667;182;145745;-64
2023/07/13 14:12:34;;;;;;;64.20;52.20;;;;;;;21.41;71.63;98848.41;223652;182;138399;-65
2023/07/13 14:17:37;;;;;;;44.90;38.10;;;;;;;21.57;72.12;98851.66;223696;181;137420;-64
2023/07/13 14:22:46;;;;;;;6.50;3.30;;;;;;;21.74;71.46;98849.28;223765;182;146137;-63
2023/07/13 14:27:56;;;;;;;5.20;2.80;;;;;;;22.00;71.68;98841.48;223554;183;139998;-65
2023/07/13 14:32:59;;;;;;;3.40;2.10;;;;;;;22.19;71.24;98840.10;223549;182;137015;-67
2023/07/13 14:38:03;;;;;;;3.80;2.20;;;;;;;22.23;70.08;98842.54;223624;182;145298;-66
2023/07/13 14:43:11;;;;;;;4.60;2.30;;;;;;;22.25;69.71;98846.09;223616;182;138562;-67
2023/07/13 14:48:18;;;;;;;4.40;2.40;;;;;;;22.30;69.56;98847.19;223640;182;136516;-66
2023/07/13 14:53:28;;;;;;;3.80;2.80;;;;;;;22.41;69.66;98848.06;223656;182;144689;-69
2023/07/13 14:58:31;;;;;;;5.50;2.80;;;;;;;22.51;69.18;98851.31;223548;182;139643;-68
2023/07/13 15:03:36;;;;;;;4.10;2.20;;;;;;;22.52;68.65;98852.08;223599;182;137281;-69
2023/07/13 15:08:42;;;;;;;4.10;2.10;;;;;;;22.49;68.34;98858.02;223603;182;144336;-68
2023/07/13 15:13:45;;;;;;;3.60;2.20;;;;;;;22.50;68.33;98888.81;223597;182;138606;-66
2023/07/13 15:18:49;;;;;;;125.30;111.70;;;;;;;22.47;68.24;98902.17;223632;182;137178;-70
2023/07/13 15:23:52;;;;;;;5.20;3.80;;;;;;;22.41;68.77;98889.11;223612;182;146496;-64
2023/07/13 15:28:55;;;;;;;8.20;3.00;;;;;;;22.39;68.98;98873.60;223718;182;139181;-65
2023/07/13 15:34:00;;;;;;;3.30;2.10;;;;;;;22.36;69.03;98869.77;223633;182;137926;-65
2023/07/13 15:39:03;;;;;;;7.60;4.30;;;;;;;22.40;69.84;98871.08;223661;181;145307;-64
2023/07/13 15:44:31;;;;;;;6.20;3.70;;;;;;;22.62;70.01;98879.48;223589;182;138373;-65
2023/07/13 15:49:35;;;;;;;3.50;2.70;;;;;;;22.90;69.44;98880.37;223582;182;137419;-65
2023/07/13 15:54:38;;;;;;;4.80;3.30;;;;;;;23.07;68.46;98883.75;223707;182;145654;-65
2023/07/13 15:59:43;;;;;;;4.60;3.50;;;;;;;23.03;68.30;98885.48;223607;182;138628;-65
2023/07/13 16:04:47;;;;;;;4.80;3.50;;;;;;;22.98;67.96;98887.27;223742;182;137376;-64
2023/07/13 16:09:50;;;;;;;3.80;3.10;;;;;;;23.07;67.36;98887.07;223763;183;145315;-64
2023/07/13 16:14:54;;;;;;;30.20;26.70;;;;;;;23.10;66.83;98901.08;223654;181;139601;-65
2023/07/13 16:19:58;;;;;;;17.50;14.50;;;;;;;23.15;66.41;98913.29;223614;182;137910;-65
2023/07/13 16:25:06;;;;;;;6.40;5.00;;;;;;;23.19;66.80;98917.77;223581;183;144963;-64
2023/07/13 16:30:21;;;;;;;10.40;9.20;;;;;;;23.25;66.95;98925.63;223500;182;138641;-66
2023/07/13 16:35:27;;;;;;;9.00;5.80;;;;;;;23.34;66.79;98933.38;223745;182;136935;-62
2023/07/13 16:40:33;;;;;;;24.00;19.10;;;;;;;23.38;66.62;98933.31;223712;182;147545;-66
2023/07/13 16:45:38;;;;;;;9.10;7.00;;;;;;;23.27;66.47;98938.14;223623;182;138916;-66
2023/07/13 16:50:44;;;;;;;6.90;4.70;;;;;;;23.27;66.43;98938.75;223618;182;137022;-70
2023/07/13 16:55:55;;;;;;;6.80;4.20;;;;;;;23.30;66.75;98950.67;223531;182;147101;-69
2023/07/13 17:01:03;;;;;;;4.20;3.70;;;;;;;23.33;66.32;98950.11;223618;182;139409;-68
2023/07/13 17:06:33;;;;;;;6.90;3.60;;;;;;;23.27;66.34;98950.80;223592;182;138233;-65
2023/07/13 17:11:39;;;;;;;5.30;3.60;;;;;;;23.21;66.57;98947.27;223781;182;146720;-65
2023/07/13 17:16:42;;;;;;;7.60;4.10;;;;;;;23.16;66.51;98945.05;223591;182;138250;-66
2023/07/13 17:21:48;;;;;;;5.30;3.80;;;;;;;23.09;67.08;98941.48;223641;182;139488;-66
2023/07/13 17:26:52;;;;;;;8.10;3.70;;;;;;;23.02;67.28;98936.70;223463;181;146845;-65
2023/07/13 17:31:55;;;;;;;5.00;3.60;;;;;;;22.96;67.27;98928.02;223554;182;139133;-66
2023/07/13 17:36:59;;;;;;;8.60;3.80;;;;;;;22.97;67.32;98920.39;223598;182;137117;-67
2023/07/13 17:42:02;;;;;;;4.50;3.40;;;;;;;22.96;67.66;98911.05;223600;183;147066;-70
2023/07/13 17:47:25;;;;;;;88.40;73.00;;;;;;;22.97;68.01;98907.73;223630;182;138344;-65
2023/07/13 17:52:29;;;;;;;36.70;30.70;;;;;;;23.05;68.01;98919.09;223509;182;138718;-73
2023/07/13 17:57:32;;;;;;;13.10;6.80;;;;;;;22.93;67.35;98917.84;223639;182;148597;-71
2023/07/13 18:02:36;;;;;;;12.60;4.30;;;;;;;22.67;67.73;98921.70;223598;182;138404;-70
2023/07/13 18:07:41;;;;;;;8.00;3.40;;;;;;;22.49;68.15;98919.84;223551;182;137285;-72
2023/07/13 18:12:44;;;;;;;5.90;3.30;;;;;;;22.31;68.66;98926.77;223611;182;147344;-68
2023/07/13 18:17:50;;;;;;;8.70;3.80;;;;;;;22.20;69.18;98929.73;223571;181;138363;-69
2023/07/13 18:22:54;;;;;;;6.50;3.10;;;;;;;22.09;69.67;98934.19;223716;182;137391;-66
2023/07/13 18:27:57;;;;;;;6.20;3.60;;;;;;;21.98;70.19;98936.54;223493;182;147624;-67
2023/07/13 18:33:02;;;;;;;6.60;3.90;;;;;;;21.85;70.63;98937.05;223518;182;139491;-65
2023/07/13 18:38:19;;;;;;;8.10;4.80;;;;;;;21.83;70.81;98940.91;223566;182;136844;-67
2023/07/13 18:43:24;;;;;;;6.80;3.80;;;;;;;21.77;70.99;98959.44;223572;182;146893;-67
2023/07/13 18:48:32;;;;;;;113.00;88.20;;;;;;;21.84;71.65;98966.27;223612;182;139260;-64
2023/07/13 18:53:44;;;;;;;6.20;5.10;;;;;;;21.92;70.58;98962.69;223733;182;137897;-69
2023/07/13 18:58:47;;;;;;;9.20;4.80;;;;;;;21.75;70.50;98971.05;223621;182;147743;-72
2023/07/13 19:03:51;;;;;;;6.40;4.00;;;;;;;21.67;70.32;98980.83;223518;182;138324;-70
2023/07/13 19:08:55;;;;;;;6.40;4.30;;;;;;;21.61;70.21;98999.85;223620;183;140362;-67
2023/07/13 19:13:59;;;;;;;8.10;4.60;;;;;;;21.57;70.41;99007.60;223574;182;146835;-69
2023/07/13 19:19:12;;;;;;;7.10;4.20;;;;;;;21.47;71.06;99007.98;223603;182;141260;-64
2023/07/13 19:24:20;;;;;;;6.20;4.20;;;;;;;21.45;71.01;99016.44;223718;182;137971;-68
2023/07/13 19:29:36;;;;;;;8.60;4.40;;;;;;;21.48;71.14;99022.77;223638;182;148901;-66
2023/07/13 19:34:40;;;;;;;12.30;5.50;;;;;;;21.41;71.38;99030.37;223601;182;138504;-69
2023/07/13 19:39:45;;;;;;;8.90;4.90;;;;;;;21.37;71.72;99031.20;223660;182;136820;-66
2023/07/13 19:44:50;;;;;;;7.40;4.80;;;;;;;21.38;71.82;99028.73;223547;182;147041;-69
2023/07/13 19:49:53;;;;;;;7.40;4.40;;;;;;;21.37;71.46;99023.39;223613;181;138448;-68
2023/07/13 19:54:58;;;;;;;7.40;4.20;;;;;;;21.36;71.61;99026.59;223644;182;138648;-70
2023/07/13 20:00:02;;;;;;;7.80;4.60;;;;;;;21.34;71.49;99028.58;223533;181;147856;-69
2023/07/13 20:05:09;;;;;;;7.40;4.00;;;;;;;21.32;70.99;99032.42;223649;182;138322;-70
2023/07/13 20:10:21;;;;;;;6.60;3.80;;;;;;;21.27;71.75;99027.65;223624;182;137401;-70
2023/07/13 20:15:26;;;;;;;8.00;4.80;;;;;;;21.17;72.08;99031.64;223630;182;147907;-66
2023/07/13 20:20:39;;;;;;;6.50;4.80;;;;;;;21.02;72.24;99033.56;223554;182;138402;-70
2023/07/13 20:25:44;;;;;;;7.40;5.00;;;;;;;20.95;72.58;99037.73;223676;182;137809;-69
2023/07/13 20:30:48;;;;;;;9.60;4.80;;;;;;;20.90;72.95;99042.61;223547;182;147914;-66
2023/07/13 20:35:54;;;;;;;10.90;5.10;;;;;;;20.87;72.99;99033.35;223639;182;140092;-72
2023/07/13 20:40:57;;;;;;;7.00;5.00;;;;;;;20.84;73.14;99038.00;223793;182;137430;-69
2023/07/13 20:46:02;;;;;;;9.50;5.50;;;;;;;20.76;73.48;99050.34;223627;182;147851;-66
2023/07/13 20:51:09;;;;;;;8.20;4.40;;;;;;;20.64;73.65;99052.16;223645;182;138431;-73
2023/07/13 20:56:18;;;;;;;6.30;4.10;;;;;;;20.62;73.06;99053.67;223502;182;138122;-76
2023/07/13 21:01:32;;;;;;;8.90;4.90;;;;;;;20.70;72.89;99058.75;223529;183;147116;-68
2023/07/13 21:06:36;;;;;;;8.90;4.50;;;;;;;20.72;72.94;99059.43;223562;182;139605;-75
2023/07/13 21:11:39;;;;;;;9.10;4.20;;;;;;;20.72;72.52;99061.99;223697;182;139275;-76
2023/07/13 21:16:43;;;;;;;12.10;7.60;;;;;;;20.72;72.48;99049.86;223642;183;147109;-71
2023/07/13 21:21:46;;;;;;;8.00;4.40;;;;;;;20.69;72.19;99056.17;223613;182;138420;-70
2023/07/13 21:26:50;;;;;;;6.60;4.20;;;;;;;20.69;72.28;99058.00;223566;182;137662;-71
2023/07/13 21:31:54;;;;;;;4.80;3.60;;;;;;;20.69;72.22;99062.06;223614;183;147246;-69
2023/07/13 21:36:59;;;;;;;7.40;4.60;;;;;;;20.68;72.04;99073.02;223683;183;138228;-69
2023/07/13 21:42:03;;;;;;;8.60;4.20;;;;;;;20.65;72.12;99076.80;223695;181;137110;-71
2023/07/13 21:47:10;;;;;;;9.00;4.30;;;;;;;20.59;72.33;99076.50;223740;182;148852;-74
2023/07/13 21:52:16;;;;;;;7.30;4.50;;;;;;;20.51;72.36;99074.94;223538;182;138934;-71
2023/07/13 21:57:19;;;;;;;8.30;3.90;;;;;;;20.45;72.71;99066.16;223568;182;138764;-71
2023/07/13 22:02:22;;;;;;;6.00;4.40;;;;;;;20.45;72.63;99074.42;223574;181;147149;-67
2023/07/13 22:07:25;;;;;;;7.20;4.60;;;;;;;20.46;72.48;99074.75;223730;182;138401;-73
2023/07/13 22:12:28;;;;;;;6.80;4.90;;;;;;;20.34;72.74;99079.23;223772;182;136809;-69
2023/07/13 22:17:32;;;;;;;6.90;5.40;;;;;;;20.22;73.03;99079.00;223662;183;147129;-68
2023/07/13 22:22:35;;;;;;;8.80;5.00;;;;;;;20.10;73.40;99083.77;223667;182;138465;-66
2023/07/13 22:27:38;;;;;;;8.50;5.00;;;;;;;20.00;73.70;99079.07;223611;182;137815;-71
2023/07/13 22:32:44;;;;;;;5.60;4.70;;;;;;;19.93;74.08;99077.39;223575;182;147475;-72
2023/07/13 22:41:31;;;;;;;7.70;5.50;;;;;;;19.88;74.40;99070.14;219802;193;666444;-65
2023/07/13 22:46:35;;;;;;;7.70;5.20;;;;;;;19.78;74.58;99062.20;223442;185;136896;-67
2023/07/13 22:51:38;;;;;;;10.50;5.50;;;;;;;19.74;74.74;99058.98;223872;182;143507;-67
2023/07/13 22:56:41;;;;;;;9.80;6.00;;;;;;;19.76;74.84;99059.65;223629;182;138251;-77
2023/07/13 23:01:46;;;;;;;9.20;6.30;;;;;;;19.79;74.76;99066.17;223814;183;137878;-67
2023/07/13 23:06:52;;;;;;;10.10;5.30;;;;;;;19.80;74.85;99060.29;223726;182;144099;-67
2023/07/13 23:11:55;;;;;;;7.70;5.40;;;;;;;19.72;74.76;99062.28;223755;182;138256;-69
2023/07/13 23:17:00;;;;;;;7.60;4.70;;;;;;;19.62;75.12;99060.98;223727;183;136804;-68
2023/07/13 23:22:20;;;;;;;10.40;5.10;;;;;;;19.58;75.24;99065.17;223804;182;143532;-68
2023/07/13 23:27:23;;;;;;;6.60;5.30;;;;;;;19.54;75.58;99075.49;223684;183;137609;-67
2023/07/13 23:32:26;;;;;;;11.00;6.20;;;;;;;19.52;75.67;99079.45;223607;182;136401;-68
2023/07/13 23:37:30;;;;;;;10.60;5.60;;;;;;;19.44;76.03;99076.70;223791;182;145339;-72
2023/07/13 23:42:33;;;;;;;8.30;5.70;;;;;;;19.40;76.18;99076.58;223762;182;138149;-70
2023/07/13 23:47:36;;;;;;;10.70;6.20;;;;;;;19.44;76.25;99086.88;223824;182;136512;-72
2023/07/13 23:52:41;;;;;;;10.10;6.00;;;;;;;19.43;76.34;99088.08;223700;183;145594;-69
